sensor_id;sensor_type;location;lat;lon;timestamp;P1;durP1;ratioP1;P2;durP2;ratioP2
70543;SDS011;58097;48.364;-1.224;2023-02-22T00:00:14;43.47;;;25.70;;
70543;SDS011;58097;48.364;-1.224;2023-02-22T00:02:50;37.92;;;23.65;;
70543;SDS011;58097;48.364;-1.224;2023-02-22T00:05:18;41.20;;;24.10;;
70543;SDS011;58097;48.364;-1.224;2023-02-22T00:07:45;40.70;;;25.63;;
70543;SDS011;58097;48.364;-1.224;2023-02-22T00:10:12;38.95;;;25.17;;
70543;SDS011;58097;48.364;-1.224;2023-02-22T00:12:41;36.88;;;23.15;;
70543;SDS011;58097;48.364;-1.224;2023-02-22T00:15:07;36.33;;;24.08;;
70543;SDS011;58097;48.364;-1.224;2023-02-22T00:17:34;39.05;;;23.45;;
70543;SDS011;58097;48.364;-1.224;2023-02-22T00:20:00;34.75;;;22.40;;
70543;SDS011;58097;48.364;-1.224;2023-02-22T00:22:25;38.25;;;23.55;;
70543;SDS011;58097;48.364;-1.224;2023-02-22T00:24:51;33.65;;;21.13;;
70543;SDS011;58097;48.364;-1.224;2023-02-22T00:27:16;43.65;;;23.75;;
70543;SDS011;58097;48.364;-1.224;2023-02-22T00:29:45;37.15;;;21.60;;
70543;SDS011;58097;48.364;-1.224;2023-02-22T00:32:11;30.65;;;20.77;;
70543;SDS011;58097;48.364;-1.224;2023-02-22T00:34:37;30.85;;;19.42;;
70543;SDS011;58097;48.364;-1.224;2023-02-22T00:37:02;27.45;;;20.55;;
70543;SDS011;58097;48.364;-1.224;2023-02-22T00:39:28;29.30;;;19.85;;
70543;SDS011;58097;48.364;-1.224;2023-02-22T00:41:54;28.40;;;19.98;;
70543;SDS011;58097;48.364;-1.224;2023-02-22T00:44:20;25.42;;;17.88;;
70543;SDS011;58097;48.364;-1.224;2023-02-22T00:46:46;25.83;;;18.30;;
70543;SDS011;58097;48.364;-1.224;2023-02-22T00:49:11;28.67;;;20.33;;
70543;SDS011;58097;48.364;-1.224;2023-02-22T00:51:36;32.60;;;21.45;;
70543;SDS011;58097;48.364;-1.224;2023-02-22T00:54:02;28.65;;;20.48;;
70543;SDS011;58097;48.364;-1.224;2023-02-22T00:56:29;34.95;;;21.55;;
70543;SDS011;58097;48.364;-1.224;2023-02-22T00:58:58;34.22;;;23.33;;
70543;SDS011;58097;48.364;-1.224;2023-02-22T01:01:24;40.80;;;25.23;;
70543;SDS011;58097;48.364;-1.224;2023-02-22T01:03:51;40.63;;;24.13;;
70543;SDS011;58097;48.364;-1.224;2023-02-22T01:06:16;40.88;;;25.75;;
70543;SDS011;58097;48.364;-1.224;2023-02-22T01:08:45;44.35;;;27.58;;
70543;SDS011;58097;48.364;-1.224;2023-02-22T01:11:12;37.40;;;24.45;;
70543;SDS011;58097;48.364;-1.224;2023-02-22T01:13:39;42.90;;;26.35;;
70543;SDS011;58097;48.364;-1.224;2023-02-22T01:16:04;37.28;;;25.55;;
70543;SDS011;58097;48.364;-1.224;2023-02-22T01:18:32;36.17;;;24.42;;
70543;SDS011;58097;48.364;-1.224;2023-02-22T01:21:02;37.42;;;22.60;;
70543;SDS011;58097;48.364;-1.224;2023-02-22T01:23:28;41.83;;;23.55;;
70543;SDS011;58097;48.364;-1.224;2023-02-22T01:25:53;34.35;;;23.60;;
70543;SDS011;58097;48.364;-1.224;2023-02-22T01:28:19;34.50;;;23.67;;
70543;SDS011;58097;48.364;-1.224;2023-02-22T01:30:46;36.22;;;22.90;;
70543;SDS011;58097;48.364;-1.224;2023-02-22T01:33:13;40.10;;;24.77;;
70543;SDS011;58097;48.364;-1.224;2023-02-22T01:35:39;34.05;;;24.05;;
70543;SDS011;58097;48.364;-1.224;2023-02-22T01:38:07;39.38;;;24.45;;
70543;SDS011;58097;48.364;-1.224;2023-02-22T01:40:34;36.15;;;23.95;;
70543;SDS011;58097;48.364;-1.224;2023-02-22T01:46:04;39.20;;;21.85;;
70543;SDS011;58097;48.364;-1.224;2023-02-22T01:48:42;36.42;;;20.60;;
70543;SDS011;58097;48.364;-1.224;2023-02-22T01:56:44;45.10;;;22.38;;
70543;SDS011;58097;48.364;-1.224;2023-02-22T01:59:18;35.65;;;21.13;;
70543;SDS011;58097;48.364;-1.224;2023-02-22T02:01:46;43.30;;;23.77;;
70543;SDS011;58097;48.364;-1.224;2023-02-22T02:04:13;42.08;;;23.10;;
70543;SDS011;58097;48.364;-1.224;2023-02-22T02:06:43;35.90;;;23.17;;
70543;SDS011;58097;48.364;-1.224;2023-02-22T02:09:18;30.77;;;21.42;;
70543;SDS011;58097;48.364;-1.224;2023-02-22T02:11:50;27.83;;;20.90;;
70543;SDS011;58097;48.364;-1.224;2023-02-22T02:14:17;32.38;;;22.65;;
70543;SDS011;58097;48.364;-1.224;2023-02-22T02:16:43;31.98;;;22.13;;
70543;SDS011;58097;48.364;-1.224;2023-02-22T02:22:12;32.05;;;23.02;;
70543;SDS011;58097;48.364;-1.224;2023-02-22T02:36:33;32.90;;;21.30;;
70543;SDS011;58097;48.364;-1.224;2023-02-22T02:42:02;34.65;;;22.90;;
70543;SDS011;58097;48.364;-1.224;2023-02-22T02:47:03;34.17;;;22.92;;
70543;SDS011;58097;48.364;-1.224;2023-02-22T02:49:38;37.00;;;23.42;;
70543;SDS011;58097;48.364;-1.224;2023-02-22T02:52:10;34.72;;;23.33;;
70543;SDS011;58097;48.364;-1.224;2023-02-22T02:54:37;35.25;;;23.77;;
70543;SDS011;58097;48.364;-1.224;2023-02-22T02:57:04;32.13;;;20.75;;
70543;SDS011;58097;48.364;-1.224;2023-02-22T02:59:31;34.25;;;21.60;;
70543;SDS011;58097;48.364;-1.224;2023-02-22T03:18:16;32.97;;;20.42;;
70543;SDS011;58097;48.364;-1.224;2023-02-22T03:20:52;31.15;;;19.67;;
70543;SDS011;58097;48.364;-1.224;2023-02-22T03:26:12;30.00;;;20.48;;
70543;SDS011;58097;48.364;-1.224;2023-02-22T03:28:40;35.05;;;22.05;;
70543;SDS011;58097;48.364;-1.224;2023-02-22T03:31:11;33.15;;;21.38;;
70543;SDS011;58097;48.364;-1.224;2023-02-22T03:33:42;34.67;;;21.60;;
70543;SDS011;58097;48.364;-1.224;2023-02-22T03:36:17;28.75;;;19.42;;
70543;SDS011;58097;48.364;-1.224;2023-02-22T03:38:49;59.00;;;22.23;;
70543;SDS011;58097;48.364;-1.224;2023-02-22T03:41:19;32.60;;;20.48;;
70543;SDS011;58097;48.364;-1.224;2023-02-22T03:44:11;29.63;;;20.60;;
70543;SDS011;58097;48.364;-1.224;2023-02-22T03:46:42;35.33;;;20.13;;
70543;SDS011;58097;48.364;-1.224;2023-02-22T03:49:56;32.28;;;21.65;;
70543;SDS011;58097;48.364;-1.224;2023-02-22T03:52:19;34.08;;;22.10;;
70543;SDS011;58097;48.364;-1.224;2023-02-22T03:54:47;37.08;;;21.92;;
70543;SDS011;58097;48.364;-1.224;2023-02-22T03:57:24;37.78;;;21.55;;
70543;SDS011;58097;48.364;-1.224;2023-02-22T03:59:52;32.22;;;20.83;;
70543;SDS011;58097;48.364;-1.224;2023-02-22T04:02:18;34.63;;;22.17;;
70543;SDS011;58097;48.364;-1.224;2023-02-22T04:04:46;36.13;;;21.05;;
70543;SDS011;58097;48.364;-1.224;2023-02-22T04:07:12;30.75;;;21.52;;
70543;SDS011;58097;48.364;-1.224;2023-02-22T04:09:37;29.02;;;19.85;;
70543;SDS011;58097;48.364;-1.224;2023-02-22T04:12:03;30.98;;;20.63;;
70543;SDS011;58097;48.364;-1.224;2023-02-22T04:14:28;31.33;;;20.70;;
70543;SDS011;58097;48.364;-1.224;2023-02-22T04:16:54;34.95;;;21.15;;
70543;SDS011;58097;48.364;-1.224;2023-02-22T04:19:19;35.30;;;23.05;;
70543;SDS011;58097;48.364;-1.224;2023-02-22T04:21:45;32.08;;;20.42;;
70543;SDS011;58097;48.364;-1.224;2023-02-22T04:24:10;34.10;;;21.70;;
70543;SDS011;58097;48.364;-1.224;2023-02-22T04:26:36;35.92;;;21.10;;
70543;SDS011;58097;48.364;-1.224;2023-02-22T04:29:02;32.58;;;20.73;;
70543;SDS011;58097;48.364;-1.224;2023-02-22T04:31:28;32.40;;;20.27;;
70543;SDS011;58097;48.364;-1.224;2023-02-22T04:33:54;35.83;;;21.05;;
70543;SDS011;58097;48.364;-1.224;2023-02-22T04:36:19;30.70;;;21.38;;
70543;SDS011;58097;48.364;-1.224;2023-02-22T04:38:45;32.13;;;19.77;;
70543;SDS011;58097;48.364;-1.224;2023-02-22T04:41:11;33.20;;;21.45;;
70543;SDS011;58097;48.364;-1.224;2023-02-22T04:43:36;29.55;;;19.60;;
70543;SDS011;58097;48.364;-1.224;2023-02-22T04:46:01;30.90;;;21.42;;
70543;SDS011;58097;48.364;-1.224;2023-02-22T04:48:28;30.23;;;20.92;;
70543;SDS011;58097;48.364;-1.224;2023-02-22T04:50:53;31.83;;;20.42;;
70543;SDS011;58097;48.364;-1.224;2023-02-22T04:53:19;30.13;;;19.30;;
70543;SDS011;58097;48.364;-1.224;2023-02-22T04:55:44;29.70;;;19.67;;
70543;SDS011;58097;48.364;-1.224;2023-02-22T04:58:10;33.80;;;21.40;;
70543;SDS011;58097;48.364;-1.224;2023-02-22T05:00:35;32.08;;;20.85;;
70543;SDS011;58097;48.364;-1.224;2023-02-22T05:03:01;34.80;;;21.60;;
70543;SDS011;58097;48.364;-1.224;2023-02-22T05:05:26;29.98;;;19.90;;
70543;SDS011;58097;48.364;-1.224;2023-02-22T05:07:51;29.92;;;19.25;;
70543;SDS011;58097;48.364;-1.224;2023-02-22T05:10:17;29.67;;;20.27;;
70543;SDS011;58097;48.364;-1.224;2023-02-22T05:12:43;31.13;;;20.92;;
70543;SDS011;58097;48.364;-1.224;2023-02-22T05:15:09;28.10;;;19.38;;
70543;SDS011;58097;48.364;-1.224;2023-02-22T05:17:34;30.02;;;19.30;;
70543;SDS011;58097;48.364;-1.224;2023-02-22T05:20:00;31.77;;;19.98;;
70543;SDS011;58097;48.364;-1.224;2023-02-22T05:22:27;28.52;;;19.30;;
70543;SDS011;58097;48.364;-1.224;2023-02-22T05:24:53;32.33;;;21.35;;
70543;SDS011;58097;48.364;-1.224;2023-02-22T05:27:18;36.00;;;22.23;;
70543;SDS011;58097;48.364;-1.224;2023-02-22T05:29:44;33.63;;;20.90;;
70543;SDS011;58097;48.364;-1.224;2023-02-22T05:32:09;35.40;;;20.58;;
70543;SDS011;58097;48.364;-1.224;2023-02-22T05:34:36;34.30;;;21.30;;
70543;SDS011;58097;48.364;-1.224;2023-02-22T05:37:01;35.40;;;20.48;;
70543;SDS011;58097;48.364;-1.224;2023-02-22T05:39:27;34.88;;;21.50;;
70543;SDS011;58097;48.364;-1.224;2023-02-22T05:41:53;37.65;;;22.80;;
70543;SDS011;58097;48.364;-1.224;2023-02-22T05:44:18;38.97;;;23.33;;
70543;SDS011;58097;48.364;-1.224;2023-02-22T05:46:44;35.83;;;21.17;;
70543;SDS011;58097;48.364;-1.224;2023-02-22T05:49:09;39.28;;;22.65;;
70543;SDS011;58097;48.364;-1.224;2023-02-22T05:51:34;37.17;;;22.50;;
70543;SDS011;58097;48.364;-1.224;2023-02-22T05:54:00;40.08;;;22.75;;
70543;SDS011;58097;48.364;-1.224;2023-02-22T05:56:26;41.00;;;24.25;;
70543;SDS011;58097;48.364;-1.224;2023-02-22T05:58:54;44.97;;;23.73;;
70543;SDS011;58097;48.364;-1.224;2023-02-22T06:01:20;41.75;;;23.52;;
70543;SDS011;58097;48.364;-1.224;2023-02-22T06:03:46;39.25;;;22.75;;
70543;SDS011;58097;48.364;-1.224;2023-02-22T06:06:13;41.55;;;23.25;;
70543;SDS011;58097;48.364;-1.224;2023-02-22T06:08:38;45.50;;;25.17;;
70543;SDS011;58097;48.364;-1.224;2023-02-22T06:11:04;46.78;;;23.67;;
70543;SDS011;58097;48.364;-1.224;2023-02-22T06:13:29;43.35;;;22.77;;
70543;SDS011;58097;48.364;-1.224;2023-02-22T06:15:55;37.63;;;23.23;;
70543;SDS011;58097;48.364;-1.224;2023-02-22T06:18:20;37.80;;;22.27;;
70543;SDS011;58097;48.364;-1.224;2023-02-22T06:20:46;41.05;;;23.27;;
70543;SDS011;58097;48.364;-1.224;2023-02-22T06:23:11;44.08;;;23.60;;
70543;SDS011;58097;48.364;-1.224;2023-02-22T06:25:36;38.10;;;21.42;;
70543;SDS011;58097;48.364;-1.224;2023-02-22T06:28:02;42.53;;;23.75;;
70543;SDS011;58097;48.364;-1.224;2023-02-22T06:30:28;40.55;;;22.13;;
70543;SDS011;58097;48.364;-1.224;2023-02-22T06:32:53;43.97;;;22.60;;
70543;SDS011;58097;48.364;-1.224;2023-02-22T06:35:19;39.97;;;22.38;;
70543;SDS011;58097;48.364;-1.224;2023-02-22T06:37:45;42.72;;;21.83;;
70543;SDS011;58097;48.364;-1.224;2023-02-22T06:40:10;43.72;;;24.00;;
70543;SDS011;58097;48.364;-1.224;2023-02-22T06:42:37;48.13;;;22.08;;
70543;SDS011;58097;48.364;-1.224;2023-02-22T06:45:04;41.08;;;22.58;;
70543;SDS011;58097;48.364;-1.224;2023-02-22T06:47:29;40.83;;;22.27;;
70543;SDS011;58097;48.364;-1.224;2023-02-22T06:49:55;45.08;;;22.35;;
70543;SDS011;58097;48.364;-1.224;2023-02-22T06:52:22;41.78;;;22.58;;
70543;SDS011;58097;48.364;-1.224;2023-02-22T06:54:48;40.53;;;22.33;;
70543;SDS011;58097;48.364;-1.224;2023-02-22T06:57:14;47.00;;;23.55;;
70543;SDS011;58097;48.364;-1.224;2023-02-22T06:59:39;50.03;;;23.92;;
70543;SDS011;58097;48.364;-1.224;2023-02-22T07:02:05;49.22;;;23.98;;
70543;SDS011;58097;48.364;-1.224;2023-02-22T07:04:30;44.08;;;22.40;;
70543;SDS011;58097;48.364;-1.224;2023-02-22T07:06:56;46.85;;;24.13;;
70543;SDS011;58097;48.364;-1.224;2023-02-22T07:09:21;49.45;;;23.10;;
70543;SDS011;58097;48.364;-1.224;2023-02-22T07:11:46;50.60;;;25.80;;
70543;SDS011;58097;48.364;-1.224;2023-02-22T07:14:12;39.65;;;21.33;;
70543;SDS011;58097;48.364;-1.224;2023-02-22T07:16:40;48.67;;;23.55;;
70543;SDS011;58097;48.364;-1.224;2023-02-22T07:19:05;46.13;;;23.15;;
70543;SDS011;58097;48.364;-1.224;2023-02-22T07:21:30;47.83;;;24.52;;
70543;SDS011;58097;48.364;-1.224;2023-02-22T07:23:56;44.83;;;22.80;;
70543;SDS011;58097;48.364;-1.224;2023-02-22T07:26:23;51.75;;;24.88;;
70543;SDS011;58097;48.364;-1.224;2023-02-22T07:28:48;47.65;;;23.90;;
70543;SDS011;58097;48.364;-1.224;2023-02-22T07:31:14;45.95;;;24.02;;
70543;SDS011;58097;48.364;-1.224;2023-02-22T07:33:40;37.70;;;20.85;;
70543;SDS011;58097;48.364;-1.224;2023-02-22T07:36:05;43.78;;;22.45;;
70543;SDS011;58097;48.364;-1.224;2023-02-22T07:38:31;38.63;;;20.75;;
70543;SDS011;58097;48.364;-1.224;2023-02-22T07:40:57;49.53;;;20.95;;
70543;SDS011;58097;48.364;-1.224;2023-02-22T07:43:23;46.30;;;23.55;;
70543;SDS011;58097;48.364;-1.224;2023-02-22T07:45:51;43.88;;;23.00;;
70543;SDS011;58097;48.364;-1.224;2023-02-22T07:48:19;45.08;;;22.60;;
70543;SDS011;58097;48.364;-1.224;2023-02-22T07:50:46;44.22;;;21.92;;
70543;SDS011;58097;48.364;-1.224;2023-02-22T07:53:15;37.40;;;21.83;;
70543;SDS011;58097;48.364;-1.224;2023-02-22T07:55:42;38.53;;;20.88;;
70543;SDS011;58097;48.364;-1.224;2023-02-22T07:58:08;41.28;;;22.88;;
70543;SDS011;58097;48.364;-1.224;2023-02-22T08:00:37;46.28;;;21.85;;
70543;SDS011;58097;48.364;-1.224;2023-02-22T08:03:05;46.00;;;21.73;;
70543;SDS011;58097;48.364;-1.224;2023-02-22T08:05:32;40.95;;;21.52;;
70543;SDS011;58097;48.364;-1.224;2023-02-22T08:07:59;35.75;;;21.13;;
70543;SDS011;58097;48.364;-1.224;2023-02-22T08:10:24;39.58;;;21.38;;
70543;SDS011;58097;48.364;-1.224;2023-02-22T08:12:51;46.50;;;21.75;;
70543;SDS011;58097;48.364;-1.224;2023-02-22T08:15:19;43.67;;;21.83;;
70543;SDS011;58097;48.364;-1.224;2023-02-22T08:17:59;42.22;;;21.67;;
70543;SDS011;58097;48.364;-1.224;2023-02-22T08:20:25;40.78;;;22.63;;
70543;SDS011;58097;48.364;-1.224;2023-02-22T08:22:52;41.97;;;22.80;;
70543;SDS011;58097;48.364;-1.224;2023-02-22T08:25:18;37.05;;;20.77;;
70543;SDS011;58097;48.364;-1.224;2023-02-22T08:27:44;46.15;;;21.38;;
70543;SDS011;58097;48.364;-1.224;2023-02-22T08:30:15;38.72;;;20.95;;
70543;SDS011;58097;48.364;-1.224;2023-02-22T08:32:44;39.75;;;20.52;;
70543;SDS011;58097;48.364;-1.224;2023-02-22T08:35:11;40.10;;;21.20;;
70543;SDS011;58097;48.364;-1.224;2023-02-22T08:37:40;52.42;;;23.85;;
70543;SDS011;58097;48.364;-1.224;2023-02-22T08:40:07;39.72;;;21.85;;
70543;SDS011;58097;48.364;-1.224;2023-02-22T08:42:32;43.90;;;22.70;;
70543;SDS011;58097;48.364;-1.224;2023-02-22T08:44:58;36.97;;;21.45;;
70543;SDS011;58097;48.364;-1.224;2023-02-22T08:47:24;36.83;;;19.77;;
70543;SDS011;58097;48.364;-1.224;2023-02-22T08:49:49;36.97;;;21.75;;
70543;SDS011;58097;48.364;-1.224;2023-02-22T08:52:15;34.00;;;20.08;;
70543;SDS011;58097;48.364;-1.224;2023-02-22T08:54:40;39.17;;;20.45;;
70543;SDS011;58097;48.364;-1.224;2023-02-22T08:57:05;43.13;;;21.58;;
70543;SDS011;58097;48.364;-1.224;2023-02-22T08:59:31;47.72;;;22.08;;
70543;SDS011;58097;48.364;-1.224;2023-02-22T09:01:56;41.35;;;21.52;;
70543;SDS011;58097;48.364;-1.224;2023-02-22T09:04:21;40.47;;;21.25;;
70543;SDS011;58097;48.364;-1.224;2023-02-22T09:06:47;46.28;;;21.25;;
70543;SDS011;58097;48.364;-1.224;2023-02-22T09:09:16;43.60;;;21.15;;
70543;SDS011;58097;48.364;-1.224;2023-02-22T09:11:46;41.35;;;21.30;;
70543;SDS011;58097;48.364;-1.224;2023-02-22T09:14:12;34.85;;;20.70;;
70543;SDS011;58097;48.364;-1.224;2023-02-22T09:16:38;36.35;;;19.73;;
70543;SDS011;58097;48.364;-1.224;2023-02-22T09:19:04;35.75;;;20.05;;
70543;SDS011;58097;48.364;-1.224;2023-02-22T09:21:30;50.10;;;20.95;;
70543;SDS011;58097;48.364;-1.224;2023-02-22T09:23:55;41.75;;;20.75;;
70543;SDS011;58097;48.364;-1.224;2023-02-22T09:26:21;45.60;;;21.23;;
70543;SDS011;58097;48.364;-1.224;2023-02-22T09:28:48;35.22;;;19.80;;
70543;SDS011;58097;48.364;-1.224;2023-02-22T09:31:14;40.78;;;20.08;;
70543;SDS011;58097;48.364;-1.224;2023-02-22T09:33:39;34.72;;;18.05;;
70543;SDS011;58097;48.364;-1.224;2023-02-22T09:36:05;30.65;;;17.42;;
70543;SDS011;58097;48.364;-1.224;2023-02-22T09:38:31;38.53;;;19.63;;
70543;SDS011;58097;48.364;-1.224;2023-02-22T09:41:07;37.67;;;19.52;;
70543;SDS011;58097;48.364;-1.224;2023-02-22T09:43:56;36.72;;;18.67;;
70543;SDS011;58097;48.364;-1.224;2023-02-22T09:46:40;40.25;;;20.00;;
70543;SDS011;58097;48.364;-1.224;2023-02-22T09:49:53;34.38;;;18.73;;
70543;SDS011;58097;48.364;-1.224;2023-02-22T09:52:07;38.42;;;19.17;;
70543;SDS011;58097;48.364;-1.224;2023-02-22T09:54:41;39.25;;;18.73;;
70543;SDS011;58097;48.364;-1.224;2023-02-22T09:57:17;36.13;;;18.60;;
70543;SDS011;58097;48.364;-1.224;2023-02-22T09:59:52;34.30;;;19.42;;
70543;SDS011;58097;48.364;-1.224;2023-02-22T10:02:35;37.13;;;18.85;;
70543;SDS011;58097;48.364;-1.224;2023-02-22T10:05:07;39.22;;;18.90;;
70543;SDS011;58097;48.364;-1.224;2023-02-22T10:07:52;36.25;;;18.95;;
70543;SDS011;58097;48.364;-1.224;2023-02-22T10:10:36;38.00;;;18.48;;
70543;SDS011;58097;48.364;-1.224;2023-02-22T10:15:55;34.33;;;18.00;;
70543;SDS011;58097;48.364;-1.224;2023-02-22T10:18:32;32.78;;;17.90;;
70543;SDS011;58097;48.364;-1.224;2023-02-22T10:26:44;34.00;;;16.50;;
70543;SDS011;58097;48.364;-1.224;2023-02-22T10:31:43;32.38;;;16.58;;
70543;SDS011;58097;48.364;-1.224;2023-02-22T10:34:20;31.85;;;17.35;;
70543;SDS011;58097;48.364;-1.224;2023-02-22T10:36:50;31.55;;;16.40;;
70543;SDS011;58097;48.364;-1.224;2023-02-22T10:39:29;27.77;;;15.45;;
70543;SDS011;58097;48.364;-1.224;2023-02-22T10:41:58;31.55;;;15.77;;
70543;SDS011;58097;48.364;-1.224;2023-02-22T10:44:33;32.70;;;16.73;;
70543;SDS011;58097;48.364;-1.224;2023-02-22T10:47:00;28.02;;;15.45;;
70543;SDS011;58097;48.364;-1.224;2023-02-22T10:49:40;29.25;;;14.95;;
70543;SDS011;58097;48.364;-1.224;2023-02-22T10:52:27;31.55;;;16.50;;
70543;SDS011;58097;48.364;-1.224;2023-02-22T10:54:55;30.77;;;15.77;;
70543;SDS011;58097;48.364;-1.224;2023-02-22T10:57:26;32.08;;;16.08;;
70543;SDS011;58097;48.364;-1.224;2023-02-22T10:59:55;32.00;;;17.88;;
70543;SDS011;58097;48.364;-1.224;2023-02-22T11:04:55;26.52;;;15.13;;
70543;SDS011;58097;48.364;-1.224;2023-02-22T11:14:50;22.67;;;12.50;;
70543;SDS011;58097;48.364;-1.224;2023-02-22T11:17:17;22.48;;;12.63;;
70543;SDS011;58097;48.364;-1.224;2023-02-22T11:19:48;23.55;;;12.93;;
70543;SDS011;58097;48.364;-1.224;2023-02-22T11:24:57;22.77;;;13.05;;
70543;SDS011;58097;48.364;-1.224;2023-02-22T11:27:27;27.33;;;13.57;;
70543;SDS011;58097;48.364;-1.224;2023-02-22T11:32:44;25.02;;;13.07;;
70543;SDS011;58097;48.364;-1.224;2023-02-22T11:35:48;22.90;;;12.57;;
70543;SDS011;58097;48.364;-1.224;2023-02-22T11:38:27;24.88;;;11.68;;
70543;SDS011;58097;48.364;-1.224;2023-02-22T11:41:31;25.50;;;12.45;;
70543;SDS011;58097;48.364;-1.224;2023-02-22T11:43:52;20.00;;;12.15;;
70543;SDS011;58097;48.364;-1.224;2023-02-22T11:46:33;18.67;;;11.35;;
70543;SDS011;58097;48.364;-1.224;2023-02-22T11:49:02;19.27;;;10.63;;
70543;SDS011;58097;48.364;-1.224;2023-02-22T12:08:21;8.35;;;5.50;;
70543;SDS011;58097;48.364;-1.224;2023-02-22T12:11:13;7.15;;;4.35;;
70543;SDS011;58097;48.364;-1.224;2023-02-22T12:22:02;6.68;;;3.95;;
70543;SDS011;58097;48.364;-1.224;2023-02-22T12:24:36;5.88;;;3.67;;
70543;SDS011;58097;48.364;-1.224;2023-02-22T12:27:08;5.32;;;3.20;;
70543;SDS011;58097;48.364;-1.224;2023-02-22T12:29:45;5.07;;;3.45;;
70543;SDS011;58097;48.364;-1.224;2023-02-22T12:32:29;9.10;;;3.53;;
70543;SDS011;58097;48.364;-1.224;2023-02-22T12:38:00;5.95;;;3.50;;
70543;SDS011;58097;48.364;-1.224;2023-02-22T12:46:08;5.45;;;3.22;;
70543;SDS011;58097;48.364;-1.224;2023-02-22T12:48:51;6.80;;;3.58;;
70543;SDS011;58097;48.364;-1.224;2023-02-22T12:51:29;3.55;;;1.90;;
70543;SDS011;58097;48.364;-1.224;2023-02-22T12:54:19;0.95;;;0.88;;
70543;SDS011;58097;48.364;-1.224;2023-02-22T12:59:34;3.10;;;0.90;;
70543;SDS011;58097;48.364;-1.224;2023-02-22T13:04:44;2.58;;;1.05;;
70543;SDS011;58097;48.364;-1.224;2023-02-22T13:07:17;2.78;;;1.08;;
70543;SDS011;58097;48.364;-1.224;2023-02-22T13:12:43;2.08;;;1.27;;
70543;SDS011;58097;48.364;-1.224;2023-02-22T13:33:49;2.60;;;1.17;;
70543;SDS011;58097;48.364;-1.224;2023-02-22T13:36:33;8.32;;;1.23;;
70543;SDS011;58097;48.364;-1.224;2023-02-22T13:42:28;6.50;;;1.58;;
70543;SDS011;58097;48.364;-1.224;2023-02-22T13:47:51;5.50;;;1.45;;
70543;SDS011;58097;48.364;-1.224;2023-02-22T13:53:20;9.13;;;1.75;;
70543;SDS011;58097;48.364;-1.224;2023-02-22T13:55:51;10.40;;;2.30;;
70543;SDS011;58097;48.364;-1.224;2023-02-22T13:58:21;14.77;;;2.03;;
70543;SDS011;58097;48.364;-1.224;2023-02-22T14:03:27;7.65;;;1.30;;
70543;SDS011;58097;48.364;-1.224;2023-02-22T14:09:06;5.97;;;1.55;;
70543;SDS011;58097;48.364;-1.224;2023-02-22T14:16:30;11.50;;;2.28;;
70543;SDS011;58097;48.364;-1.224;2023-02-22T14:24:26;7.43;;;1.73;;
70543;SDS011;58097;48.364;-1.224;2023-02-22T14:26:55;3.95;;;1.05;;
70543;SDS011;58097;48.364;-1.224;2023-02-22T14:29:25;3.08;;;1.10;;
70543;SDS011;58097;48.364;-1.224;2023-02-22T14:34:17;8.05;;;1.40;;
70543;SDS011;58097;48.364;-1.224;2023-02-22T14:36:59;4.38;;;0.80;;
70543;SDS011;58097;48.364;-1.224;2023-02-22T14:39:33;10.10;;;1.30;;
70543;SDS011;58097;48.364;-1.224;2023-02-22T14:42:07;7.85;;;2.15;;
70543;SDS011;58097;48.364;-1.224;2023-02-22T14:47:15;2.38;;;1.30;;
70543;SDS011;58097;48.364;-1.224;2023-02-22T14:49:45;8.27;;;2.55;;
70543;SDS011;58097;48.364;-1.224;2023-02-22T14:52:17;10.48;;;1.10;;
70543;SDS011;58097;48.364;-1.224;2023-02-22T14:55:10;7.85;;;0.98;;
70543;SDS011;58097;48.364;-1.224;2023-02-22T15:00:14;10.23;;;1.20;;
70543;SDS011;58097;48.364;-1.224;2023-02-22T15:02:48;7.40;;;1.48;;
70543;SDS011;58097;48.364;-1.224;2023-02-22T15:05:17;12.30;;;1.63;;
70543;SDS011;58097;48.364;-1.224;2023-02-22T15:07:57;5.90;;;0.88;;
70543;SDS011;58097;48.364;-1.224;2023-02-22T15:12:51;5.35;;;1.05;;
70543;SDS011;58097;48.364;-1.224;2023-02-22T15:15:20;6.22;;;1.48;;
70543;SDS011;58097;48.364;-1.224;2023-02-22T15:17:53;4.97;;;1.17;;
70543;SDS011;58097;48.364;-1.224;2023-02-22T15:20:20;8.30;;;2.22;;
70543;SDS011;58097;48.364;-1.224;2023-02-22T15:22:48;15.15;;;2.67;;
70543;SDS011;58097;48.364;-1.224;2023-02-22T15:25:13;10.20;;;1.85;;
70543;SDS011;58097;48.364;-1.224;2023-02-22T15:27:39;8.55;;;1.50;;
70543;SDS011;58097;48.364;-1.224;2023-02-22T15:30:19;7.10;;;2.03;;
70543;SDS011;58097;48.364;-1.224;2023-02-22T15:32:47;8.00;;;1.50;;
70543;SDS011;58097;48.364;-1.224;2023-02-22T15:37:59;6.18;;;1.33;;
70543;SDS011;58097;48.364;-1.224;2023-02-22T15:40:25;9.13;;;1.30;;
70543;SDS011;58097;48.364;-1.224;2023-02-22T15:45:22;9.65;;;1.35;;
70543;SDS011;58097;48.364;-1.224;2023-02-22T15:47:50;3.75;;;1.30;;
70543;SDS011;58097;48.364;-1.224;2023-02-22T15:50:25;2.47;;;0.95;;
70543;SDS011;58097;48.364;-1.224;2023-02-22T15:52:57;5.18;;;0.75;;
70543;SDS011;58097;48.364;-1.224;2023-02-22T15:55:45;2.72;;;1.02;;
70543;SDS011;58097;48.364;-1.224;2023-02-22T16:00:40;3.95;;;0.88;;
70543;SDS011;58097;48.364;-1.224;2023-02-22T16:03:08;4.22;;;1.25;;
70543;SDS011;58097;48.364;-1.224;2023-02-22T16:05:40;3.58;;;1.73;;
70543;SDS011;58097;48.364;-1.224;2023-02-22T16:08:16;3.75;;;1.10;;
70543;SDS011;58097;48.364;-1.224;2023-02-22T16:10:56;13.70;;;1.65;;
70543;SDS011;58097;48.364;-1.224;2023-02-22T16:13:26;5.85;;;1.20;;
70543;SDS011;58097;48.364;-1.224;2023-02-22T16:18:48;7.88;;;1.20;;
70543;SDS011;58097;48.364;-1.224;2023-02-22T16:21:15;7.47;;;1.88;;
70543;SDS011;58097;48.364;-1.224;2023-02-22T16:23:46;2.58;;;1.30;;
70543;SDS011;58097;48.364;-1.224;2023-02-22T16:26:25;4.68;;;0.98;;
70543;SDS011;58097;48.364;-1.224;2023-02-22T16:28:57;10.93;;;1.30;;
70543;SDS011;58097;48.364;-1.224;2023-02-22T16:31:24;12.48;;;1.75;;
70543;SDS011;58097;48.364;-1.224;2023-02-22T16:33:51;1.73;;;0.80;;
70543;SDS011;58097;48.364;-1.224;2023-02-22T16:36:18;8.88;;;1.55;;
70543;SDS011;58097;48.364;-1.224;2023-02-22T16:38:46;1.10;;;0.80;;
70543;SDS011;58097;48.364;-1.224;2023-02-22T16:41:13;13.68;;;1.60;;
70543;SDS011;58097;48.364;-1.224;2023-02-22T16:43:43;4.40;;;1.50;;
70543;SDS011;58097;48.364;-1.224;2023-02-22T16:46:11;6.15;;;1.20;;
70543;SDS011;58097;48.364;-1.224;2023-02-22T16:48:36;10.15;;;1.30;;
70543;SDS011;58097;48.364;-1.224;2023-02-22T16:51:14;3.47;;;1.27;;
70543;SDS011;58097;48.364;-1.224;2023-02-22T16:53:46;3.95;;;1.10;;
70543;SDS011;58097;48.364;-1.224;2023-02-22T16:56:13;3.80;;;1.55;;
70543;SDS011;58097;48.364;-1.224;2023-02-22T16:58:40;9.10;;;1.77;;
70543;SDS011;58097;48.364;-1.224;2023-02-22T17:01:07;6.22;;;1.73;;
70543;SDS011;58097;48.364;-1.224;2023-02-22T17:03:33;8.50;;;1.85;;
70543;SDS011;58097;48.364;-1.224;2023-02-22T17:05:59;1.75;;;0.75;;
70543;SDS011;58097;48.364;-1.224;2023-02-22T17:08:24;8.77;;;0.95;;
70543;SDS011;58097;48.364;-1.224;2023-02-22T17:10:50;10.07;;;1.60;;
70543;SDS011;58097;48.364;-1.224;2023-02-22T17:13:20;8.43;;;1.60;;
70543;SDS011;58097;48.364;-1.224;2023-02-22T17:15:47;5.55;;;1.40;;
70543;SDS011;58097;48.364;-1.224;2023-02-22T17:18:13;7.80;;;1.33;;
70543;SDS011;58097;48.364;-1.224;2023-02-22T17:20:41;6.38;;;1.20;;
70543;SDS011;58097;48.364;-1.224;2023-02-22T17:23:07;5.88;;;1.38;;
70543;SDS011;58097;48.364;-1.224;2023-02-22T17:25:44;7.55;;;0.90;;
70543;SDS011;58097;48.364;-1.224;2023-02-22T17:28:20;2.50;;;1.17;;